<?xml version="1.0" encoding="UTF-8" standalone="no" ?>
<gpx xmlns="http://www.topografix.com/GPX/1/1" xmlns:xsi="http://www.w3.org/2001/XMLSchema-instance" xsi:schemaLocation="http://www.topografix.com/GPX/1/1 http://www.topografix.com/GPX/1/1/gpx.xsd" version="1.1" creator="VisuGPX - https://www.visugpx.com">
  <metadata>
    <name>Fiefsauvin_GalloRomain23.6km</name>
    <desc><![CDATA[gnerando idor:8186958]]></desc>
  </metadata>
  <trk>
    <name><![CDATA[FiefSauvin_GalloRomain_23.6km-8186958]]></name>
    <extensions>
      <line xmlns="http://www.topografix.com/GPX/gpx_style/0/2">
        <color>0000FF</color>
        <width>4</width>
      </line>
    </extensions>
    <trkseg>
      <trkpt lat="47.22192" lon="-1.04005">
        <ele>91</ele>
        <time>2023-11-04T15:24:26Z</time>
      </trkpt>
      <trkpt lat="47.22175" lon="-1.03996">
        <ele>91</ele>
        <time>2023-11-04T15:24:50Z</time>
      </trkpt>
      <trkpt lat="47.22167" lon="-1.03971">
        <ele>91</ele>
        <time>2023-11-04T15:25:15Z</time>
      </trkpt>
      <trkpt lat="47.22148" lon="-1.03865">
        <ele>90</ele>
        <time>2023-11-04T15:26:55Z</time>
      </trkpt>
      <trkpt lat="47.22131" lon="-1.03788">
        <ele>87</ele>
        <time>2023-11-04T15:28:08Z</time>
      </trkpt>
      <trkpt lat="47.22128" lon="-1.0376">
        <ele>86</ele>
        <time>2023-11-04T15:28:34Z</time>
      </trkpt>
      <trkpt lat="47.22129" lon="-1.03734">
        <ele>85</ele>
        <time>2023-11-04T15:28:57Z</time>
      </trkpt>
      <trkpt lat="47.22134" lon="-1.03707">
        <ele>84</ele>
        <time>2023-11-04T15:29:23Z</time>
      </trkpt>
      <trkpt lat="47.22143" lon="-1.03684">
        <ele>84</ele>
        <time>2023-11-04T15:29:47Z</time>
      </trkpt>
      <trkpt lat="47.22181" lon="-1.03626">
        <ele>84</ele>
        <time>2023-11-04T15:31:00Z</time>
      </trkpt>
      <trkpt lat="47.22198" lon="-1.03615">
        <ele>84</ele>
        <time>2023-11-04T15:31:24Z</time>
      </trkpt>
      <trkpt lat="47.22215" lon="-1.03608">
        <ele>83</ele>
        <time>2023-11-04T15:31:48Z</time>
      </trkpt>
      <trkpt lat="47.22344" lon="-1.03577">
        <ele>79</ele>
        <time>2023-11-04T15:34:42Z</time>
      </trkpt>
      <trkpt lat="47.22363" lon="-1.0357">
        <ele>79</ele>
        <time>2023-11-04T15:35:09Z</time>
      </trkpt>
      <trkpt lat="47.22358" lon="-1.03545">
        <ele>77</ele>
        <time>2023-11-04T15:35:32Z</time>
      </trkpt>
      <trkpt lat="47.22348" lon="-1.03522">
        <ele>75</ele>
        <time>2023-11-04T15:35:57Z</time>
      </trkpt>
      <trkpt lat="47.22333" lon="-1.03473">
        <ele>72</ele>
        <time>2023-11-04T15:36:46Z</time>
      </trkpt>
      <trkpt lat="47.22331" lon="-1.03446">
        <ele>71</ele>
        <time>2023-11-04T15:37:10Z</time>
      </trkpt>
      <trkpt lat="47.22343" lon="-1.03338">
        <ele>62</ele>
        <time>2023-11-04T15:38:49Z</time>
      </trkpt>
      <trkpt lat="47.22328" lon="-1.03288">
        <ele>57</ele>
        <time>2023-11-04T15:39:39Z</time>
      </trkpt>
      <trkpt lat="47.22323" lon="-1.03261">
        <ele>53</ele>
        <time>2023-11-04T15:40:04Z</time>
      </trkpt>
      <trkpt lat="47.22339" lon="-1.03275">
        <ele>53</ele>
        <time>2023-11-04T15:40:29Z</time>
      </trkpt>
      <trkpt lat="47.22351" lon="-1.03296">
        <ele>55</ele>
        <time>2023-11-04T15:40:54Z</time>
      </trkpt>
      <trkpt lat="47.22388" lon="-1.033">
        <ele>52</ele>
        <time>2023-11-04T15:41:44Z</time>
      </trkpt>
      <trkpt lat="47.22423" lon="-1.03318">
        <ele>52</ele>
        <time>2023-11-04T15:42:33Z</time>
      </trkpt>
      <trkpt lat="47.22436" lon="-1.03337">
        <ele>53</ele>
        <time>2023-11-04T15:42:57Z</time>
      </trkpt>
      <trkpt lat="47.22454" lon="-1.03344">
        <ele>54</ele>
        <time>2023-11-04T15:43:22Z</time>
      </trkpt>
      <trkpt lat="47.22471" lon="-1.03355">
        <ele>55</ele>
        <time>2023-11-04T15:43:47Z</time>
      </trkpt>
      <trkpt lat="47.22522" lon="-1.03362">
        <ele>56</ele>
        <time>2023-11-04T15:44:55Z</time>
      </trkpt>
      <trkpt lat="47.22559" lon="-1.03353">
        <ele>56</ele>
        <time>2023-11-04T15:45:45Z</time>
      </trkpt>
      <trkpt lat="47.2259" lon="-1.03324">
        <ele>53</ele>
        <time>2023-11-04T15:46:34Z</time>
      </trkpt>
      <trkpt lat="47.22616" lon="-1.03284">
        <ele>54</ele>
        <time>2023-11-04T15:47:25Z</time>
      </trkpt>
      <trkpt lat="47.22626" lon="-1.03258">
        <ele>53</ele>
        <time>2023-11-04T15:47:52Z</time>
      </trkpt>
      <trkpt lat="47.22663" lon="-1.03197">
        <ele>50</ele>
        <time>2023-11-04T15:49:06Z</time>
      </trkpt>
      <trkpt lat="47.22685" lon="-1.03122">
        <ele>48</ele>
        <time>2023-11-04T15:50:20Z</time>
      </trkpt>
      <trkpt lat="47.22692" lon="-1.03068">
        <ele>47</ele>
        <time>2023-11-04T15:51:10Z</time>
      </trkpt>
      <trkpt lat="47.22689" lon="-1.03041">
        <ele>47</ele>
        <time>2023-11-04T15:51:35Z</time>
      </trkpt>
      <trkpt lat="47.22672" lon="-1.02962">
        <ele>46</ele>
        <time>2023-11-04T15:52:50Z</time>
      </trkpt>
      <trkpt lat="47.22654" lon="-1.02914">
        <ele>46</ele>
        <time>2023-11-04T15:53:39Z</time>
      </trkpt>
      <trkpt lat="47.22644" lon="-1.02863">
        <ele>49</ele>
        <time>2023-11-04T15:54:27Z</time>
      </trkpt>
      <trkpt lat="47.22626" lon="-1.02861">
        <ele>48</ele>
        <time>2023-11-04T15:54:52Z</time>
      </trkpt>
      <trkpt lat="47.22631" lon="-1.02835">
        <ele>49</ele>
        <time>2023-11-04T15:55:16Z</time>
      </trkpt>
      <trkpt lat="47.22603" lon="-1.02762">
        <ele>48</ele>
        <time>2023-11-04T15:56:32Z</time>
      </trkpt>
      <trkpt lat="47.2259" lon="-1.02742">
        <ele>47</ele>
        <time>2023-11-04T15:56:57Z</time>
      </trkpt>
      <trkpt lat="47.22576" lon="-1.02691">
        <ele>47</ele>
        <time>2023-11-04T15:57:47Z</time>
      </trkpt>
      <trkpt lat="47.22566" lon="-1.02668">
        <ele>47</ele>
        <time>2023-11-04T15:58:12Z</time>
      </trkpt>
      <trkpt lat="47.22562" lon="-1.02642">
        <ele>48</ele>
        <time>2023-11-04T15:58:36Z</time>
      </trkpt>
      <trkpt lat="47.22549" lon="-1.0259">
        <ele>48</ele>
        <time>2023-11-04T15:59:26Z</time>
      </trkpt>
      <trkpt lat="47.22519" lon="-1.02491">
        <ele>45</ele>
        <time>2023-11-04T16:01:04Z</time>
      </trkpt>
      <trkpt lat="47.22508" lon="-1.02439">
        <ele>45</ele>
        <time>2023-11-04T16:01:54Z</time>
      </trkpt>
      <trkpt lat="47.22497" lon="-1.02416">
        <ele>44</ele>
        <time>2023-11-04T16:02:19Z</time>
      </trkpt>
      <trkpt lat="47.22482" lon="-1.02367">
        <ele>46</ele>
        <time>2023-11-04T16:03:08Z</time>
      </trkpt>
      <trkpt lat="47.2247" lon="-1.02346">
        <ele>46</ele>
        <time>2023-11-04T16:03:33Z</time>
      </trkpt>
      <trkpt lat="47.22451" lon="-1.02341">
        <ele>44</ele>
        <time>2023-11-04T16:03:58Z</time>
      </trkpt>
      <trkpt lat="47.22429" lon="-1.02295">
        <ele>41</ele>
        <time>2023-11-04T16:04:49Z</time>
      </trkpt>
      <trkpt lat="47.22409" lon="-1.0222">
        <ele>40</ele>
        <time>2023-11-04T16:06:02Z</time>
      </trkpt>
      <trkpt lat="47.22402" lon="-1.02111">
        <ele>39</ele>
        <time>2023-11-04T16:07:42Z</time>
      </trkpt>
      <trkpt lat="47.22405" lon="-1.02084">
        <ele>38</ele>
        <time>2023-11-04T16:08:07Z</time>
      </trkpt>
      <trkpt lat="47.22401" lon="-1.02111">
        <ele>40</ele>
        <time>2023-11-04T16:08:32Z</time>
      </trkpt>
      <trkpt lat="47.22408" lon="-1.02217">
        <ele>40</ele>
        <time>2023-11-04T16:10:08Z</time>
      </trkpt>
      <trkpt lat="47.22428" lon="-1.02293">
        <ele>41</ele>
        <time>2023-11-04T16:11:22Z</time>
      </trkpt>
      <trkpt lat="47.22451" lon="-1.02337">
        <ele>44</ele>
        <time>2023-11-04T16:12:12Z</time>
      </trkpt>
      <trkpt lat="47.22481" lon="-1.02371">
        <ele>46</ele>
        <time>2023-11-04T16:13:03Z</time>
      </trkpt>
      <trkpt lat="47.22501" lon="-1.02417">
        <ele>44</ele>
        <time>2023-11-04T16:13:52Z</time>
      </trkpt>
      <trkpt lat="47.2252" lon="-1.02525">
        <ele>45</ele>
        <time>2023-11-04T16:15:33Z</time>
      </trkpt>
      <trkpt lat="47.22555" lon="-1.0262">
        <ele>48</ele>
        <time>2023-11-04T16:17:11Z</time>
      </trkpt>
      <trkpt lat="47.22567" lon="-1.0267">
        <ele>47</ele>
        <time>2023-11-04T16:17:59Z</time>
      </trkpt>
      <trkpt lat="47.22576" lon="-1.02695">
        <ele>47</ele>
        <time>2023-11-04T16:18:25Z</time>
      </trkpt>
      <trkpt lat="47.22581" lon="-1.02721">
        <ele>47</ele>
        <time>2023-11-04T16:18:50Z</time>
      </trkpt>
      <trkpt lat="47.22591" lon="-1.02743">
        <ele>47</ele>
        <time>2023-11-04T16:19:14Z</time>
      </trkpt>
      <trkpt lat="47.22604" lon="-1.02762">
        <ele>49</ele>
        <time>2023-11-04T16:19:38Z</time>
      </trkpt>
      <trkpt lat="47.22615" lon="-1.02784">
        <ele>49</ele>
        <time>2023-11-04T16:20:03Z</time>
      </trkpt>
      <trkpt lat="47.22625" lon="-1.02808">
        <ele>50</ele>
        <time>2023-11-04T16:20:28Z</time>
      </trkpt>
      <trkpt lat="47.22631" lon="-1.02833">
        <ele>49</ele>
        <time>2023-11-04T16:20:52Z</time>
      </trkpt>
      <trkpt lat="47.22646" lon="-1.02848">
        <ele>50</ele>
        <time>2023-11-04T16:21:16Z</time>
      </trkpt>
      <trkpt lat="47.22663" lon="-1.02858">
        <ele>51</ele>
        <time>2023-11-04T16:21:41Z</time>
      </trkpt>
      <trkpt lat="47.22678" lon="-1.02875">
        <ele>51</ele>
        <time>2023-11-04T16:22:06Z</time>
      </trkpt>
      <trkpt lat="47.22689" lon="-1.02896">
        <ele>50</ele>
        <time>2023-11-04T16:22:30Z</time>
      </trkpt>
      <trkpt lat="47.22698" lon="-1.02919">
        <ele>50</ele>
        <time>2023-11-04T16:22:54Z</time>
      </trkpt>
      <trkpt lat="47.22703" lon="-1.02945">
        <ele>50</ele>
        <time>2023-11-04T16:23:19Z</time>
      </trkpt>
      <trkpt lat="47.22711" lon="-1.0297">
        <ele>51</ele>
        <time>2023-11-04T16:23:44Z</time>
      </trkpt>
      <trkpt lat="47.22723" lon="-1.03051">
        <ele>53</ele>
        <time>2023-11-04T16:24:59Z</time>
      </trkpt>
      <trkpt lat="47.2273" lon="-1.03076">
        <ele>55</ele>
        <time>2023-11-04T16:25:23Z</time>
      </trkpt>
      <trkpt lat="47.22748" lon="-1.03075">
        <ele>58</ele>
        <time>2023-11-04T16:25:47Z</time>
      </trkpt>
      <trkpt lat="47.22744" lon="-1.03102">
        <ele>60</ele>
        <time>2023-11-04T16:26:12Z</time>
      </trkpt>
      <trkpt lat="47.22716" lon="-1.03174">
        <ele>61</ele>
        <time>2023-11-04T16:27:28Z</time>
      </trkpt>
      <trkpt lat="47.22714" lon="-1.03202">
        <ele>63</ele>
        <time>2023-11-04T16:27:53Z</time>
      </trkpt>
      <trkpt lat="47.22716" lon="-1.03229">
        <ele>66</ele>
        <time>2023-11-04T16:28:18Z</time>
      </trkpt>
      <trkpt lat="47.2273" lon="-1.03245">
        <ele>71</ele>
        <time>2023-11-04T16:28:41Z</time>
      </trkpt>
      <trkpt lat="47.22766" lon="-1.03236">
        <ele>74</ele>
        <time>2023-11-04T16:29:30Z</time>
      </trkpt>
      <trkpt lat="47.22839" lon="-1.03213">
        <ele>69</ele>
        <time>2023-11-04T16:31:10Z</time>
      </trkpt>
      <trkpt lat="47.22876" lon="-1.03206">
        <ele>67</ele>
        <time>2023-11-04T16:32:00Z</time>
      </trkpt>
      <trkpt lat="47.2293" lon="-1.0319">
        <ele>64</ele>
        <time>2023-11-04T16:33:13Z</time>
      </trkpt>
      <trkpt lat="47.22948" lon="-1.03181">
        <ele>64</ele>
        <time>2023-11-04T16:33:38Z</time>
      </trkpt>
      <trkpt lat="47.22966" lon="-1.03179">
        <ele>64</ele>
        <time>2023-11-04T16:34:03Z</time>
      </trkpt>
      <trkpt lat="47.23004" lon="-1.03169">
        <ele>63</ele>
        <time>2023-11-04T16:34:54Z</time>
      </trkpt>
      <trkpt lat="47.23022" lon="-1.03162">
        <ele>63</ele>
        <time>2023-11-04T16:35:19Z</time>
      </trkpt>
      <trkpt lat="47.23039" lon="-1.03148">
        <ele>64</ele>
        <time>2023-11-04T16:35:45Z</time>
      </trkpt>
      <trkpt lat="47.23076" lon="-1.03137">
        <ele>64</ele>
        <time>2023-11-04T16:36:35Z</time>
      </trkpt>
      <trkpt lat="47.23094" lon="-1.03142">
        <ele>65</ele>
        <time>2023-11-04T16:37:00Z</time>
      </trkpt>
      <trkpt lat="47.23124" lon="-1.03174">
        <ele>69</ele>
        <time>2023-11-04T16:37:49Z</time>
      </trkpt>
      <trkpt lat="47.2314" lon="-1.03186">
        <ele>72</ele>
        <time>2023-11-04T16:38:13Z</time>
      </trkpt>
      <trkpt lat="47.2317" lon="-1.03215">
        <ele>77</ele>
        <time>2023-11-04T16:39:01Z</time>
      </trkpt>
      <trkpt lat="47.23184" lon="-1.03234">
        <ele>80</ele>
        <time>2023-11-04T16:39:26Z</time>
      </trkpt>
      <trkpt lat="47.23202" lon="-1.03239">
        <ele>81</ele>
        <time>2023-11-04T16:39:51Z</time>
      </trkpt>
      <trkpt lat="47.23214" lon="-1.03218">
        <ele>81</ele>
        <time>2023-11-04T16:40:16Z</time>
      </trkpt>
      <trkpt lat="47.23258" lon="-1.03168">
        <ele>83</ele>
        <time>2023-11-04T16:41:30Z</time>
      </trkpt>
      <trkpt lat="47.23272" lon="-1.03149">
        <ele>84</ele>
        <time>2023-11-04T16:41:55Z</time>
      </trkpt>
      <trkpt lat="47.23311" lon="-1.03089">
        <ele>86</ele>
        <time>2023-11-04T16:43:11Z</time>
      </trkpt>
      <trkpt lat="47.23326" lon="-1.03072">
        <ele>86</ele>
        <time>2023-11-04T16:43:36Z</time>
      </trkpt>
      <trkpt lat="47.2339" lon="-1.03016">
        <ele>83</ele>
        <time>2023-11-04T16:45:15Z</time>
      </trkpt>
      <trkpt lat="47.23434" lon="-1.02966">
        <ele>77</ele>
        <time>2023-11-04T16:46:29Z</time>
      </trkpt>
      <trkpt lat="47.23447" lon="-1.02986">
        <ele>73</ele>
        <time>2023-11-04T16:46:54Z</time>
      </trkpt>
      <trkpt lat="47.2346" lon="-1.03037">
        <ele>72</ele>
        <time>2023-11-04T16:47:44Z</time>
      </trkpt>
      <trkpt lat="47.23464" lon="-1.03063">
        <ele>72</ele>
        <time>2023-11-04T16:48:08Z</time>
      </trkpt>
      <trkpt lat="47.23472" lon="-1.03088">
        <ele>72</ele>
        <time>2023-11-04T16:48:33Z</time>
      </trkpt>
      <trkpt lat="47.23476" lon="-1.03114">
        <ele>74</ele>
        <time>2023-11-04T16:48:57Z</time>
      </trkpt>
      <trkpt lat="47.23486" lon="-1.03138">
        <ele>75</ele>
        <time>2023-11-04T16:49:23Z</time>
      </trkpt>
      <trkpt lat="47.23504" lon="-1.03217">
        <ele>78</ele>
        <time>2023-11-04T16:50:38Z</time>
      </trkpt>
      <trkpt lat="47.23514" lon="-1.03239">
        <ele>78</ele>
        <time>2023-11-04T16:51:02Z</time>
      </trkpt>
      <trkpt lat="47.2353" lon="-1.03251">
        <ele>76</ele>
        <time>2023-11-04T16:51:26Z</time>
      </trkpt>
      <trkpt lat="47.23548" lon="-1.03256">
        <ele>74</ele>
        <time>2023-11-04T16:51:51Z</time>
      </trkpt>
      <trkpt lat="47.23566" lon="-1.03266">
        <ele>71</ele>
        <time>2023-11-04T16:52:16Z</time>
      </trkpt>
      <trkpt lat="47.23598" lon="-1.03292">
        <ele>65</ele>
        <time>2023-11-04T16:53:05Z</time>
      </trkpt>
      <trkpt lat="47.23616" lon="-1.033">
        <ele>62</ele>
        <time>2023-11-04T16:53:30Z</time>
      </trkpt>
      <trkpt lat="47.23634" lon="-1.03303">
        <ele>58</ele>
        <time>2023-11-04T16:53:54Z</time>
      </trkpt>
      <trkpt lat="47.23652" lon="-1.0331">
        <ele>55</ele>
        <time>2023-11-04T16:54:19Z</time>
      </trkpt>
      <trkpt lat="47.23691" lon="-1.0331">
        <ele>48</ele>
        <time>2023-11-04T16:55:11Z</time>
      </trkpt>
      <trkpt lat="47.23693" lon="-1.03337">
        <ele>49</ele>
        <time>2023-11-04T16:55:36Z</time>
      </trkpt>
      <trkpt lat="47.23675" lon="-1.03385">
        <ele>47</ele>
        <time>2023-11-04T16:56:25Z</time>
      </trkpt>
      <trkpt lat="47.23651" lon="-1.03425">
        <ele>45</ele>
        <time>2023-11-04T16:57:14Z</time>
      </trkpt>
      <trkpt lat="47.23668" lon="-1.03432">
        <ele>43</ele>
        <time>2023-11-04T16:57:37Z</time>
      </trkpt>
      <trkpt lat="47.23685" lon="-1.03423">
        <ele>44</ele>
        <time>2023-11-04T16:58:01Z</time>
      </trkpt>
      <trkpt lat="47.23697" lon="-1.03402">
        <ele>45</ele>
        <time>2023-11-04T16:58:26Z</time>
      </trkpt>
      <trkpt lat="47.23716" lon="-1.034">
        <ele>44</ele>
        <time>2023-11-04T16:58:52Z</time>
      </trkpt>
      <trkpt lat="47.23758" lon="-1.03344">
        <ele>40</ele>
        <time>2023-11-04T17:00:07Z</time>
      </trkpt>
      <trkpt lat="47.23774" lon="-1.0333">
        <ele>40</ele>
        <time>2023-11-04T17:00:32Z</time>
      </trkpt>
      <trkpt lat="47.23787" lon="-1.03309">
        <ele>40</ele>
        <time>2023-11-04T17:00:58Z</time>
      </trkpt>
      <trkpt lat="47.23808" lon="-1.03265">
        <ele>36</ele>
        <time>2023-11-04T17:01:47Z</time>
      </trkpt>
      <trkpt lat="47.23825" lon="-1.03253">
        <ele>35</ele>
        <time>2023-11-04T17:02:12Z</time>
      </trkpt>
      <trkpt lat="47.23861" lon="-1.03239">
        <ele>35</ele>
        <time>2023-11-04T17:03:01Z</time>
      </trkpt>
      <trkpt lat="47.23877" lon="-1.03226">
        <ele>37</ele>
        <time>2023-11-04T17:03:26Z</time>
      </trkpt>
      <trkpt lat="47.23895" lon="-1.03224">
        <ele>37</ele>
        <time>2023-11-04T17:03:50Z</time>
      </trkpt>
      <trkpt lat="47.23969" lon="-1.03226">
        <ele>36</ele>
        <time>2023-11-04T17:05:29Z</time>
      </trkpt>
      <trkpt lat="47.23987" lon="-1.03232">
        <ele>35</ele>
        <time>2023-11-04T17:05:53Z</time>
      </trkpt>
      <trkpt lat="47.24061" lon="-1.03242">
        <ele>36</ele>
        <time>2023-11-04T17:07:33Z</time>
      </trkpt>
      <trkpt lat="47.24079" lon="-1.03248">
        <ele>36</ele>
        <time>2023-11-04T17:07:57Z</time>
      </trkpt>
      <trkpt lat="47.24097" lon="-1.03259">
        <ele>37</ele>
        <time>2023-11-04T17:08:23Z</time>
      </trkpt>
      <trkpt lat="47.24114" lon="-1.03264">
        <ele>37</ele>
        <time>2023-11-04T17:08:46Z</time>
      </trkpt>
      <trkpt lat="47.24104" lon="-1.03286">
        <ele>38</ele>
        <time>2023-11-04T17:09:10Z</time>
      </trkpt>
      <trkpt lat="47.2409" lon="-1.03302">
        <ele>40</ele>
        <time>2023-11-04T17:09:34Z</time>
      </trkpt>
      <trkpt lat="47.24056" lon="-1.03324">
        <ele>42</ele>
        <time>2023-11-04T17:10:23Z</time>
      </trkpt>
      <trkpt lat="47.24042" lon="-1.03342">
        <ele>43</ele>
        <time>2023-11-04T17:10:48Z</time>
      </trkpt>
      <trkpt lat="47.24033" lon="-1.03366">
        <ele>46</ele>
        <time>2023-11-04T17:11:13Z</time>
      </trkpt>
      <trkpt lat="47.24028" lon="-1.03393">
        <ele>48</ele>
        <time>2023-11-04T17:11:38Z</time>
      </trkpt>
      <trkpt lat="47.24018" lon="-1.03416">
        <ele>51</ele>
        <time>2023-11-04T17:12:03Z</time>
      </trkpt>
      <trkpt lat="47.24002" lon="-1.03428">
        <ele>53</ele>
        <time>2023-11-04T17:12:27Z</time>
      </trkpt>
      <trkpt lat="47.23966" lon="-1.03427">
        <ele>55</ele>
        <time>2023-11-04T17:13:15Z</time>
      </trkpt>
      <trkpt lat="47.23928" lon="-1.0343">
        <ele>59</ele>
        <time>2023-11-04T17:14:06Z</time>
      </trkpt>
      <trkpt lat="47.23872" lon="-1.03424">
        <ele>61</ele>
        <time>2023-11-04T17:15:21Z</time>
      </trkpt>
      <trkpt lat="47.23835" lon="-1.03437">
        <ele>64</ele>
        <time>2023-11-04T17:16:12Z</time>
      </trkpt>
      <trkpt lat="47.2382" lon="-1.03453">
        <ele>64</ele>
        <time>2023-11-04T17:16:36Z</time>
      </trkpt>
      <trkpt lat="47.23807" lon="-1.03472">
        <ele>65</ele>
        <time>2023-11-04T17:17:01Z</time>
      </trkpt>
      <trkpt lat="47.23774" lon="-1.03541">
        <ele>69</ele>
        <time>2023-11-04T17:18:17Z</time>
      </trkpt>
      <trkpt lat="47.23766" lon="-1.03565">
        <ele>71</ele>
        <time>2023-11-04T17:18:42Z</time>
      </trkpt>
      <trkpt lat="47.23757" lon="-1.03619">
        <ele>75</ele>
        <time>2023-11-04T17:19:32Z</time>
      </trkpt>
      <trkpt lat="47.23755" lon="-1.03648">
        <ele>77</ele>
        <time>2023-11-04T17:19:58Z</time>
      </trkpt>
      <trkpt lat="47.23774" lon="-1.03723">
        <ele>77</ele>
        <time>2023-11-04T17:21:11Z</time>
      </trkpt>
      <trkpt lat="47.23792" lon="-1.03771">
        <ele>78</ele>
        <time>2023-11-04T17:22:01Z</time>
      </trkpt>
      <trkpt lat="47.23799" lon="-1.03797">
        <ele>78</ele>
        <time>2023-11-04T17:22:26Z</time>
      </trkpt>
      <trkpt lat="47.23799" lon="-1.03824">
        <ele>78</ele>
        <time>2023-11-04T17:22:50Z</time>
      </trkpt>
      <trkpt lat="47.23804" lon="-1.0385">
        <ele>79</ele>
        <time>2023-11-04T17:23:15Z</time>
      </trkpt>
      <trkpt lat="47.23806" lon="-1.03905">
        <ele>80</ele>
        <time>2023-11-04T17:24:05Z</time>
      </trkpt>
      <trkpt lat="47.23801" lon="-1.03958">
        <ele>80</ele>
        <time>2023-11-04T17:24:53Z</time>
      </trkpt>
      <trkpt lat="47.23803" lon="-1.04013">
        <ele>81</ele>
        <time>2023-11-04T17:25:43Z</time>
      </trkpt>
      <trkpt lat="47.23814" lon="-1.04092">
        <ele>81</ele>
        <time>2023-11-04T17:26:56Z</time>
      </trkpt>
      <trkpt lat="47.23826" lon="-1.04145">
        <ele>83</ele>
        <time>2023-11-04T17:27:47Z</time>
      </trkpt>
      <trkpt lat="47.23843" lon="-1.0415">
        <ele>82</ele>
        <time>2023-11-04T17:28:10Z</time>
      </trkpt>
      <trkpt lat="47.2386" lon="-1.0414">
        <ele>82</ele>
        <time>2023-11-04T17:28:34Z</time>
      </trkpt>
      <trkpt lat="47.23897" lon="-1.04126">
        <ele>82</ele>
        <time>2023-11-04T17:29:25Z</time>
      </trkpt>
      <trkpt lat="47.23914" lon="-1.04114">
        <ele>82</ele>
        <time>2023-11-04T17:29:51Z</time>
      </trkpt>
      <trkpt lat="47.23949" lon="-1.041">
        <ele>76</ele>
        <time>2023-11-04T17:30:39Z</time>
      </trkpt>
      <trkpt lat="47.23963" lon="-1.04081">
        <ele>75</ele>
        <time>2023-11-04T17:31:04Z</time>
      </trkpt>
      <trkpt lat="47.23992" lon="-1.03981">
        <ele>75</ele>
        <time>2023-11-04T17:32:43Z</time>
      </trkpt>
      <trkpt lat="47.23996" lon="-1.03955">
        <ele>76</ele>
        <time>2023-11-04T17:33:07Z</time>
      </trkpt>
      <trkpt lat="47.24004" lon="-1.03929">
        <ele>76</ele>
        <time>2023-11-04T17:33:33Z</time>
      </trkpt>
      <trkpt lat="47.24019" lon="-1.03913">
        <ele>74</ele>
        <time>2023-11-04T17:33:58Z</time>
      </trkpt>
      <trkpt lat="47.24037" lon="-1.03905">
        <ele>72</ele>
        <time>2023-11-04T17:34:23Z</time>
      </trkpt>
      <trkpt lat="47.24071" lon="-1.03881">
        <ele>68</ele>
        <time>2023-11-04T17:35:13Z</time>
      </trkpt>
      <trkpt lat="47.2409" lon="-1.03877">
        <ele>65</ele>
        <time>2023-11-04T17:35:39Z</time>
      </trkpt>
      <trkpt lat="47.24144" lon="-1.03856">
        <ele>61</ele>
        <time>2023-11-04T17:36:53Z</time>
      </trkpt>
      <trkpt lat="47.24162" lon="-1.03855">
        <ele>60</ele>
        <time>2023-11-04T17:37:17Z</time>
      </trkpt>
      <trkpt lat="47.24181" lon="-1.03855">
        <ele>59</ele>
        <time>2023-11-04T17:37:42Z</time>
      </trkpt>
      <trkpt lat="47.24198" lon="-1.03861">
        <ele>58</ele>
        <time>2023-11-04T17:38:06Z</time>
      </trkpt>
      <trkpt lat="47.24252" lon="-1.03884">
        <ele>54</ele>
        <time>2023-11-04T17:39:21Z</time>
      </trkpt>
      <trkpt lat="47.24271" lon="-1.03895">
        <ele>52</ele>
        <time>2023-11-04T17:39:48Z</time>
      </trkpt>
      <trkpt lat="47.24279" lon="-1.03919">
        <ele>51</ele>
        <time>2023-11-04T17:40:12Z</time>
      </trkpt>
      <trkpt lat="47.24284" lon="-1.03945">
        <ele>50</ele>
        <time>2023-11-04T17:40:37Z</time>
      </trkpt>
      <trkpt lat="47.24302" lon="-1.03992">
        <ele>49</ele>
        <time>2023-11-04T17:41:26Z</time>
      </trkpt>
      <trkpt lat="47.24313" lon="-1.04014">
        <ele>49</ele>
        <time>2023-11-04T17:41:50Z</time>
      </trkpt>
      <trkpt lat="47.24331" lon="-1.04062">
        <ele>53</ele>
        <time>2023-11-04T17:42:40Z</time>
      </trkpt>
      <trkpt lat="47.24342" lon="-1.04083">
        <ele>54</ele>
        <time>2023-11-04T17:43:04Z</time>
      </trkpt>
      <trkpt lat="47.24369" lon="-1.04155">
        <ele>56</ele>
        <time>2023-11-04T17:44:19Z</time>
      </trkpt>
      <trkpt lat="47.24381" lon="-1.04175">
        <ele>57</ele>
        <time>2023-11-04T17:44:43Z</time>
      </trkpt>
      <trkpt lat="47.24375" lon="-1.042">
        <ele>57</ele>
        <time>2023-11-04T17:45:07Z</time>
      </trkpt>
      <trkpt lat="47.24373" lon="-1.04226">
        <ele>58</ele>
        <time>2023-11-04T17:45:31Z</time>
      </trkpt>
      <trkpt lat="47.24392" lon="-1.0423">
        <ele>58</ele>
        <time>2023-11-04T17:45:56Z</time>
      </trkpt>
      <trkpt lat="47.24408" lon="-1.04245">
        <ele>59</ele>
        <time>2023-11-04T17:46:21Z</time>
      </trkpt>
      <trkpt lat="47.24436" lon="-1.04281">
        <ele>57</ele>
        <time>2023-11-04T17:47:11Z</time>
      </trkpt>
      <trkpt lat="47.24451" lon="-1.04296">
        <ele>56</ele>
        <time>2023-11-04T17:47:35Z</time>
      </trkpt>
      <trkpt lat="47.24483" lon="-1.0427">
        <ele>56</ele>
        <time>2023-11-04T17:48:24Z</time>
      </trkpt>
      <trkpt lat="47.24514" lon="-1.04239">
        <ele>54</ele>
        <time>2023-11-04T17:49:14Z</time>
      </trkpt>
      <trkpt lat="47.24551" lon="-1.04177">
        <ele>48</ele>
        <time>2023-11-04T17:50:29Z</time>
      </trkpt>
      <trkpt lat="47.24582" lon="-1.04149">
        <ele>44</ele>
        <time>2023-11-04T17:51:17Z</time>
      </trkpt>
      <trkpt lat="47.24592" lon="-1.04126">
        <ele>43</ele>
        <time>2023-11-04T17:51:42Z</time>
      </trkpt>
      <trkpt lat="47.24611" lon="-1.04121">
        <ele>42</ele>
        <time>2023-11-04T17:52:08Z</time>
      </trkpt>
      <trkpt lat="47.2463" lon="-1.04121">
        <ele>41</ele>
        <time>2023-11-04T17:52:33Z</time>
      </trkpt>
      <trkpt lat="47.24665" lon="-1.04139">
        <ele>38</ele>
        <time>2023-11-04T17:53:23Z</time>
      </trkpt>
      <trkpt lat="47.24733" lon="-1.04186">
        <ele>34</ele>
        <time>2023-11-04T17:55:03Z</time>
      </trkpt>
      <trkpt lat="47.2473" lon="-1.04214">
        <ele>33</ele>
        <time>2023-11-04T17:55:29Z</time>
      </trkpt>
      <trkpt lat="47.24721" lon="-1.04238">
        <ele>33</ele>
        <time>2023-11-04T17:55:53Z</time>
      </trkpt>
      <trkpt lat="47.24716" lon="-1.04264">
        <ele>33</ele>
        <time>2023-11-04T17:56:18Z</time>
      </trkpt>
      <trkpt lat="47.24685" lon="-1.04332">
        <ele>33</ele>
        <time>2023-11-04T17:57:32Z</time>
      </trkpt>
      <trkpt lat="47.24661" lon="-1.04372">
        <ele>35</ele>
        <time>2023-11-04T17:58:20Z</time>
      </trkpt>
      <trkpt lat="47.24659" lon="-1.04401">
        <ele>35</ele>
        <time>2023-11-04T17:58:47Z</time>
      </trkpt>
      <trkpt lat="47.24652" lon="-1.04425">
        <ele>36</ele>
        <time>2023-11-04T17:59:11Z</time>
      </trkpt>
      <trkpt lat="47.24639" lon="-1.04505">
        <ele>42</ele>
        <time>2023-11-04T18:00:25Z</time>
      </trkpt>
      <trkpt lat="47.24652" lon="-1.04524">
        <ele>45</ele>
        <time>2023-11-04T18:00:49Z</time>
      </trkpt>
      <trkpt lat="47.24682" lon="-1.04554">
        <ele>49</ele>
        <time>2023-11-04T18:01:38Z</time>
      </trkpt>
      <trkpt lat="47.2471" lon="-1.04589">
        <ele>54</ele>
        <time>2023-11-04T18:02:27Z</time>
      </trkpt>
      <trkpt lat="47.24753" lon="-1.0468">
        <ele>60</ele>
        <time>2023-11-04T18:04:07Z</time>
      </trkpt>
      <trkpt lat="47.24765" lon="-1.04701">
        <ele>62</ele>
        <time>2023-11-04T18:04:32Z</time>
      </trkpt>
      <trkpt lat="47.24798" lon="-1.04722">
        <ele>65</ele>
        <time>2023-11-04T18:05:20Z</time>
      </trkpt>
      <trkpt lat="47.24814" lon="-1.04735">
        <ele>67</ele>
        <time>2023-11-04T18:05:45Z</time>
      </trkpt>
      <trkpt lat="47.24866" lon="-1.04766">
        <ele>70</ele>
        <time>2023-11-04T18:06:59Z</time>
      </trkpt>
      <trkpt lat="47.24882" lon="-1.04779">
        <ele>71</ele>
        <time>2023-11-04T18:07:24Z</time>
      </trkpt>
      <trkpt lat="47.24901" lon="-1.04784">
        <ele>72</ele>
        <time>2023-11-04T18:07:50Z</time>
      </trkpt>
      <trkpt lat="47.24935" lon="-1.04766">
        <ele>72</ele>
        <time>2023-11-04T18:08:38Z</time>
      </trkpt>
      <trkpt lat="47.2495" lon="-1.04783">
        <ele>73</ele>
        <time>2023-11-04T18:09:03Z</time>
      </trkpt>
      <trkpt lat="47.2495" lon="-1.04837">
        <ele>75</ele>
        <time>2023-11-04T18:09:52Z</time>
      </trkpt>
      <trkpt lat="47.24956" lon="-1.04892">
        <ele>76</ele>
        <time>2023-11-04T18:10:42Z</time>
      </trkpt>
      <trkpt lat="47.24956" lon="-1.04947">
        <ele>77</ele>
        <time>2023-11-04T18:11:32Z</time>
      </trkpt>
      <trkpt lat="47.24963" lon="-1.04972">
        <ele>78</ele>
        <time>2023-11-04T18:11:57Z</time>
      </trkpt>
      <trkpt lat="47.2498" lon="-1.04983">
        <ele>79</ele>
        <time>2023-11-04T18:12:21Z</time>
      </trkpt>
      <trkpt lat="47.24998" lon="-1.04989">
        <ele>80</ele>
        <time>2023-11-04T18:12:46Z</time>
      </trkpt>
      <trkpt lat="47.25016" lon="-1.04977">
        <ele>79</ele>
        <time>2023-11-04T18:13:12Z</time>
      </trkpt>
      <trkpt lat="47.25034" lon="-1.0497">
        <ele>79</ele>
        <time>2023-11-04T18:13:37Z</time>
      </trkpt>
      <trkpt lat="47.25052" lon="-1.04975">
        <ele>79</ele>
        <time>2023-11-04T18:14:02Z</time>
      </trkpt>
      <trkpt lat="47.25071" lon="-1.04974">
        <ele>78</ele>
        <time>2023-11-04T18:14:27Z</time>
      </trkpt>
      <trkpt lat="47.25089" lon="-1.04979">
        <ele>78</ele>
        <time>2023-11-04T18:14:52Z</time>
      </trkpt>
      <trkpt lat="47.25095" lon="-1.05004">
        <ele>78</ele>
        <time>2023-11-04T18:15:16Z</time>
      </trkpt>
      <trkpt lat="47.25095" lon="-1.05032">
        <ele>78</ele>
        <time>2023-11-04T18:15:41Z</time>
      </trkpt>
      <trkpt lat="47.25099" lon="-1.05058">
        <ele>77</ele>
        <time>2023-11-04T18:16:05Z</time>
      </trkpt>
      <trkpt lat="47.25117" lon="-1.05065">
        <ele>76</ele>
        <time>2023-11-04T18:16:30Z</time>
      </trkpt>
      <trkpt lat="47.25173" lon="-1.05071">
        <ele>73</ele>
        <time>2023-11-04T18:17:45Z</time>
      </trkpt>
      <trkpt lat="47.25215" lon="-1.0507">
        <ele>68</ele>
        <time>2023-11-04T18:18:41Z</time>
      </trkpt>
      <trkpt lat="47.2527" lon="-1.05074">
        <ele>57</ele>
        <time>2023-11-04T18:19:54Z</time>
      </trkpt>
      <trkpt lat="47.25286" lon="-1.05089">
        <ele>52</ele>
        <time>2023-11-04T18:20:20Z</time>
      </trkpt>
      <trkpt lat="47.25282" lon="-1.05116">
        <ele>53</ele>
        <time>2023-11-04T18:20:45Z</time>
      </trkpt>
      <trkpt lat="47.25263" lon="-1.05162">
        <ele>58</ele>
        <time>2023-11-04T18:21:34Z</time>
      </trkpt>
      <trkpt lat="47.25264" lon="-1.05218">
        <ele>59</ele>
        <time>2023-11-04T18:22:24Z</time>
      </trkpt>
      <trkpt lat="47.25268" lon="-1.05244">
        <ele>58</ele>
        <time>2023-11-04T18:22:48Z</time>
      </trkpt>
      <trkpt lat="47.25278" lon="-1.05267">
        <ele>56</ele>
        <time>2023-11-04T18:23:13Z</time>
      </trkpt>
      <trkpt lat="47.25281" lon="-1.05294">
        <ele>56</ele>
        <time>2023-11-04T18:23:38Z</time>
      </trkpt>
      <trkpt lat="47.25284" lon="-1.05348">
        <ele>57</ele>
        <time>2023-11-04T18:24:27Z</time>
      </trkpt>
      <trkpt lat="47.25283" lon="-1.05375">
        <ele>59</ele>
        <time>2023-11-04T18:24:52Z</time>
      </trkpt>
      <trkpt lat="47.25275" lon="-1.05401">
        <ele>63</ele>
        <time>2023-11-04T18:25:17Z</time>
      </trkpt>
      <trkpt lat="47.25269" lon="-1.05455">
        <ele>65</ele>
        <time>2023-11-04T18:26:07Z</time>
      </trkpt>
      <trkpt lat="47.25261" lon="-1.0548">
        <ele>67</ele>
        <time>2023-11-04T18:26:32Z</time>
      </trkpt>
      <trkpt lat="47.25254" lon="-1.05562">
        <ele>66</ele>
        <time>2023-11-04T18:27:47Z</time>
      </trkpt>
      <trkpt lat="47.25243" lon="-1.05643">
        <ele>66</ele>
        <time>2023-11-04T18:29:02Z</time>
      </trkpt>
      <trkpt lat="47.25238" lon="-1.05669">
        <ele>66</ele>
        <time>2023-11-04T18:29:26Z</time>
      </trkpt>
      <trkpt lat="47.25229" lon="-1.05694">
        <ele>65</ele>
        <time>2023-11-04T18:29:52Z</time>
      </trkpt>
      <trkpt lat="47.25215" lon="-1.05713">
        <ele>66</ele>
        <time>2023-11-04T18:30:17Z</time>
      </trkpt>
      <trkpt lat="47.25197" lon="-1.05721">
        <ele>68</ele>
        <time>2023-11-04T18:30:42Z</time>
      </trkpt>
      <trkpt lat="47.25179" lon="-1.05725">
        <ele>71</ele>
        <time>2023-11-04T18:31:07Z</time>
      </trkpt>
      <trkpt lat="47.25162" lon="-1.05735">
        <ele>72</ele>
        <time>2023-11-04T18:31:31Z</time>
      </trkpt>
      <trkpt lat="47.25145" lon="-1.05747">
        <ele>72</ele>
        <time>2023-11-04T18:31:56Z</time>
      </trkpt>
      <trkpt lat="47.25114" lon="-1.05779">
        <ele>71</ele>
        <time>2023-11-04T18:32:47Z</time>
      </trkpt>
      <trkpt lat="47.25096" lon="-1.05789">
        <ele>72</ele>
        <time>2023-11-04T18:33:12Z</time>
      </trkpt>
      <trkpt lat="47.25077" lon="-1.05794">
        <ele>73</ele>
        <time>2023-11-04T18:33:38Z</time>
      </trkpt>
      <trkpt lat="47.25003" lon="-1.05805">
        <ele>80</ele>
        <time>2023-11-04T18:35:17Z</time>
      </trkpt>
      <trkpt lat="47.24966" lon="-1.05802">
        <ele>83</ele>
        <time>2023-11-04T18:36:07Z</time>
      </trkpt>
      <trkpt lat="47.24948" lon="-1.05806">
        <ele>85</ele>
        <time>2023-11-04T18:36:31Z</time>
      </trkpt>
      <trkpt lat="47.24903" lon="-1.05928">
        <ele>88</ele>
        <time>2023-11-04T18:38:37Z</time>
      </trkpt>
      <trkpt lat="47.24898" lon="-1.0601">
        <ele>89</ele>
        <time>2023-11-04T18:39:51Z</time>
      </trkpt>
      <trkpt lat="47.24869" lon="-1.06111">
        <ele>91</ele>
        <time>2023-11-04T18:41:31Z</time>
      </trkpt>
      <trkpt lat="47.24846" lon="-1.06155">
        <ele>93</ele>
        <time>2023-11-04T18:42:21Z</time>
      </trkpt>
      <trkpt lat="47.24833" lon="-1.06173">
        <ele>94</ele>
        <time>2023-11-04T18:42:45Z</time>
      </trkpt>
      <trkpt lat="47.24822" lon="-1.06196">
        <ele>94</ele>
        <time>2023-11-04T18:43:10Z</time>
      </trkpt>
      <trkpt lat="47.24796" lon="-1.06236">
        <ele>95</ele>
        <time>2023-11-04T18:44:01Z</time>
      </trkpt>
      <trkpt lat="47.24778" lon="-1.06234">
        <ele>96</ele>
        <time>2023-11-04T18:44:25Z</time>
      </trkpt>
      <trkpt lat="47.2476" lon="-1.06224">
        <ele>97</ele>
        <time>2023-11-04T18:44:50Z</time>
      </trkpt>
      <trkpt lat="47.24743" lon="-1.06219">
        <ele>98</ele>
        <time>2023-11-04T18:45:13Z</time>
      </trkpt>
      <trkpt lat="47.24728" lon="-1.06203">
        <ele>98</ele>
        <time>2023-11-04T18:45:38Z</time>
      </trkpt>
      <trkpt lat="47.24702" lon="-1.06165">
        <ele>100</ele>
        <time>2023-11-04T18:46:27Z</time>
      </trkpt>
      <trkpt lat="47.24685" lon="-1.06176">
        <ele>100</ele>
        <time>2023-11-04T18:46:52Z</time>
      </trkpt>
      <trkpt lat="47.24672" lon="-1.06195">
        <ele>101</ele>
        <time>2023-11-04T18:47:16Z</time>
      </trkpt>
      <trkpt lat="47.24656" lon="-1.06211">
        <ele>101</ele>
        <time>2023-11-04T18:47:42Z</time>
      </trkpt>
      <trkpt lat="47.24643" lon="-1.06229">
        <ele>101</ele>
        <time>2023-11-04T18:48:06Z</time>
      </trkpt>
      <trkpt lat="47.24618" lon="-1.0627">
        <ele>101</ele>
        <time>2023-11-04T18:48:56Z</time>
      </trkpt>
      <trkpt lat="47.2461" lon="-1.06295">
        <ele>101</ele>
        <time>2023-11-04T18:49:21Z</time>
      </trkpt>
      <trkpt lat="47.24607" lon="-1.06322">
        <ele>101</ele>
        <time>2023-11-04T18:49:46Z</time>
      </trkpt>
      <trkpt lat="47.24611" lon="-1.06432">
        <ele>101</ele>
        <time>2023-11-04T18:51:25Z</time>
      </trkpt>
      <trkpt lat="47.24616" lon="-1.06457">
        <ele>101</ele>
        <time>2023-11-04T18:51:49Z</time>
      </trkpt>
      <trkpt lat="47.24632" lon="-1.06471">
        <ele>101</ele>
        <time>2023-11-04T18:52:14Z</time>
      </trkpt>
      <trkpt lat="47.24644" lon="-1.06491">
        <ele>101</ele>
        <time>2023-11-04T18:52:38Z</time>
      </trkpt>
      <trkpt lat="47.24649" lon="-1.06517">
        <ele>101</ele>
        <time>2023-11-04T18:53:02Z</time>
      </trkpt>
      <trkpt lat="47.24625" lon="-1.06591">
        <ele>101</ele>
        <time>2023-11-04T18:54:17Z</time>
      </trkpt>
      <trkpt lat="47.2459" lon="-1.06653">
        <ele>102</ele>
        <time>2023-11-04T18:55:30Z</time>
      </trkpt>
      <trkpt lat="47.24524" lon="-1.06785">
        <ele>103</ele>
        <time>2023-11-04T18:57:58Z</time>
      </trkpt>
      <trkpt lat="47.24483" lon="-1.06877">
        <ele>105</ele>
        <time>2023-11-04T18:59:38Z</time>
      </trkpt>
      <trkpt lat="47.24457" lon="-1.06915">
        <ele>105</ele>
        <time>2023-11-04T19:00:27Z</time>
      </trkpt>
      <trkpt lat="47.24435" lon="-1.06959">
        <ele>105</ele>
        <time>2023-11-04T19:01:16Z</time>
      </trkpt>
      <trkpt lat="47.24426" lon="-1.06983">
        <ele>104</ele>
        <time>2023-11-04T19:01:41Z</time>
      </trkpt>
      <trkpt lat="47.24379" lon="-1.0707">
        <ele>105</ele>
        <time>2023-11-04T19:03:22Z</time>
      </trkpt>
      <trkpt lat="47.24369" lon="-1.07093">
        <ele>106</ele>
        <time>2023-11-04T19:03:47Z</time>
      </trkpt>
      <trkpt lat="47.24342" lon="-1.07131">
        <ele>106</ele>
        <time>2023-11-04T19:04:37Z</time>
      </trkpt>
      <trkpt lat="47.24285" lon="-1.07242">
        <ele>106</ele>
        <time>2023-11-04T19:06:43Z</time>
      </trkpt>
      <trkpt lat="47.24257" lon="-1.07277">
        <ele>106</ele>
        <time>2023-11-04T19:07:32Z</time>
      </trkpt>
      <trkpt lat="47.24266" lon="-1.07302">
        <ele>106</ele>
        <time>2023-11-04T19:07:57Z</time>
      </trkpt>
      <trkpt lat="47.24246" lon="-1.07348">
        <ele>106</ele>
        <time>2023-11-04T19:08:47Z</time>
      </trkpt>
      <trkpt lat="47.24194" lon="-1.07425">
        <ele>106</ele>
        <time>2023-11-04T19:10:25Z</time>
      </trkpt>
      <trkpt lat="47.24165" lon="-1.07456">
        <ele>107</ele>
        <time>2023-11-04T19:11:13Z</time>
      </trkpt>
      <trkpt lat="47.24153" lon="-1.07476">
        <ele>107</ele>
        <time>2023-11-04T19:11:37Z</time>
      </trkpt>
      <trkpt lat="47.24121" lon="-1.07542">
        <ele>106</ele>
        <time>2023-11-04T19:12:51Z</time>
      </trkpt>
      <trkpt lat="47.24106" lon="-1.07558">
        <ele>106</ele>
        <time>2023-11-04T19:13:15Z</time>
      </trkpt>
      <trkpt lat="47.24089" lon="-1.07568">
        <ele>106</ele>
        <time>2023-11-04T19:13:40Z</time>
      </trkpt>
      <trkpt lat="47.23998" lon="-1.07604">
        <ele>100</ele>
        <time>2023-11-04T19:15:46Z</time>
      </trkpt>
      <trkpt lat="47.23981" lon="-1.07614">
        <ele>100</ele>
        <time>2023-11-04T19:16:10Z</time>
      </trkpt>
      <trkpt lat="47.23927" lon="-1.07632">
        <ele>99</ele>
        <time>2023-11-04T19:17:24Z</time>
      </trkpt>
      <trkpt lat="47.23876" lon="-1.07671">
        <ele>98</ele>
        <time>2023-11-04T19:18:41Z</time>
      </trkpt>
      <trkpt lat="47.2386" lon="-1.07686">
        <ele>97</ele>
        <time>2023-11-04T19:19:06Z</time>
      </trkpt>
      <trkpt lat="47.23832" lon="-1.07722">
        <ele>97</ele>
        <time>2023-11-04T19:19:55Z</time>
      </trkpt>
      <trkpt lat="47.23792" lon="-1.07781">
        <ele>95</ele>
        <time>2023-11-04T19:21:11Z</time>
      </trkpt>
      <trkpt lat="47.23755" lon="-1.07847">
        <ele>93</ele>
        <time>2023-11-04T19:22:29Z</time>
      </trkpt>
      <trkpt lat="47.2371" lon="-1.07935">
        <ele>90</ele>
        <time>2023-11-04T19:24:08Z</time>
      </trkpt>
      <trkpt lat="47.23705" lon="-1.07961">
        <ele>90</ele>
        <time>2023-11-04T19:24:33Z</time>
      </trkpt>
      <trkpt lat="47.23704" lon="-1.07989">
        <ele>90</ele>
        <time>2023-11-04T19:24:58Z</time>
      </trkpt>
      <trkpt lat="47.2371" lon="-1.08015">
        <ele>90</ele>
        <time>2023-11-04T19:25:23Z</time>
      </trkpt>
      <trkpt lat="47.2371" lon="-1.08042">
        <ele>91</ele>
        <time>2023-11-04T19:25:48Z</time>
      </trkpt>
      <trkpt lat="47.23706" lon="-1.08097">
        <ele>92</ele>
        <time>2023-11-04T19:26:38Z</time>
      </trkpt>
      <trkpt lat="47.23699" lon="-1.0815">
        <ele>93</ele>
        <time>2023-11-04T19:27:27Z</time>
      </trkpt>
      <trkpt lat="47.23691" lon="-1.08177">
        <ele>94</ele>
        <time>2023-11-04T19:27:53Z</time>
      </trkpt>
      <trkpt lat="47.23671" lon="-1.08223">
        <ele>95</ele>
        <time>2023-11-04T19:28:43Z</time>
      </trkpt>
      <trkpt lat="47.2366" lon="-1.08244">
        <ele>95</ele>
        <time>2023-11-04T19:29:07Z</time>
      </trkpt>
      <trkpt lat="47.23645" lon="-1.0826">
        <ele>95</ele>
        <time>2023-11-04T19:29:32Z</time>
      </trkpt>
      <trkpt lat="47.23636" lon="-1.08284">
        <ele>96</ele>
        <time>2023-11-04T19:29:56Z</time>
      </trkpt>
      <trkpt lat="47.23631" lon="-1.0831">
        <ele>97</ele>
        <time>2023-11-04T19:30:21Z</time>
      </trkpt>
      <trkpt lat="47.2363" lon="-1.08338">
        <ele>97</ele>
        <time>2023-11-04T19:30:46Z</time>
      </trkpt>
      <trkpt lat="47.23634" lon="-1.08366">
        <ele>98</ele>
        <time>2023-11-04T19:31:12Z</time>
      </trkpt>
      <trkpt lat="47.23635" lon="-1.08448">
        <ele>101</ele>
        <time>2023-11-04T19:32:27Z</time>
      </trkpt>
      <trkpt lat="47.2363" lon="-1.08476">
        <ele>101</ele>
        <time>2023-11-04T19:32:53Z</time>
      </trkpt>
      <trkpt lat="47.23634" lon="-1.08502">
        <ele>101</ele>
        <time>2023-11-04T19:33:17Z</time>
      </trkpt>
      <trkpt lat="47.23625" lon="-1.08555">
        <ele>101</ele>
        <time>2023-11-04T19:34:06Z</time>
      </trkpt>
      <trkpt lat="47.23626" lon="-1.08582">
        <ele>102</ele>
        <time>2023-11-04T19:34:31Z</time>
      </trkpt>
      <trkpt lat="47.23621" lon="-1.08609">
        <ele>101</ele>
        <time>2023-11-04T19:34:56Z</time>
      </trkpt>
      <trkpt lat="47.23606" lon="-1.08661">
        <ele>102</ele>
        <time>2023-11-04T19:35:47Z</time>
      </trkpt>
      <trkpt lat="47.23565" lon="-1.08751">
        <ele>103</ele>
        <time>2023-11-04T19:37:26Z</time>
      </trkpt>
      <trkpt lat="47.23543" lon="-1.08795">
        <ele>102</ele>
        <time>2023-11-04T19:38:15Z</time>
      </trkpt>
      <trkpt lat="47.2353" lon="-1.08814">
        <ele>102</ele>
        <time>2023-11-04T19:38:40Z</time>
      </trkpt>
      <trkpt lat="47.23512" lon="-1.0886">
        <ele>102</ele>
        <time>2023-11-04T19:39:28Z</time>
      </trkpt>
      <trkpt lat="47.23487" lon="-1.08901">
        <ele>100</ele>
        <time>2023-11-04T19:40:18Z</time>
      </trkpt>
      <trkpt lat="47.23477" lon="-1.08924">
        <ele>100</ele>
        <time>2023-11-04T19:40:42Z</time>
      </trkpt>
      <trkpt lat="47.23463" lon="-1.08943">
        <ele>100</ele>
        <time>2023-11-04T19:41:08Z</time>
      </trkpt>
      <trkpt lat="47.23452" lon="-1.08964">
        <ele>100</ele>
        <time>2023-11-04T19:41:32Z</time>
      </trkpt>
      <trkpt lat="47.23437" lon="-1.09014">
        <ele>100</ele>
        <time>2023-11-04T19:42:21Z</time>
      </trkpt>
      <trkpt lat="47.23423" lon="-1.09093">
        <ele>100</ele>
        <time>2023-11-04T19:43:35Z</time>
      </trkpt>
      <trkpt lat="47.23414" lon="-1.09176">
        <ele>100</ele>
        <time>2023-11-04T19:44:52Z</time>
      </trkpt>
      <trkpt lat="47.23391" lon="-1.09281">
        <ele>105</ele>
        <time>2023-11-04T19:46:31Z</time>
      </trkpt>
      <trkpt lat="47.23383" lon="-1.09336">
        <ele>108</ele>
        <time>2023-11-04T19:47:22Z</time>
      </trkpt>
      <trkpt lat="47.23374" lon="-1.0936">
        <ele>109</ele>
        <time>2023-11-04T19:47:47Z</time>
      </trkpt>
      <trkpt lat="47.2335" lon="-1.09402">
        <ele>109</ele>
        <time>2023-11-04T19:48:37Z</time>
      </trkpt>
      <trkpt lat="47.23336" lon="-1.09421">
        <ele>109</ele>
        <time>2023-11-04T19:49:02Z</time>
      </trkpt>
      <trkpt lat="47.23325" lon="-1.09443">
        <ele>110</ele>
        <time>2023-11-04T19:49:27Z</time>
      </trkpt>
      <trkpt lat="47.23292" lon="-1.09469">
        <ele>109</ele>
        <time>2023-11-04T19:50:17Z</time>
      </trkpt>
      <trkpt lat="47.23235" lon="-1.09537">
        <ele>110</ele>
        <time>2023-11-04T19:51:55Z</time>
      </trkpt>
      <trkpt lat="47.23184" lon="-1.09563">
        <ele>110</ele>
        <time>2023-11-04T19:53:07Z</time>
      </trkpt>
      <trkpt lat="47.23165" lon="-1.09563">
        <ele>109</ele>
        <time>2023-11-04T19:53:32Z</time>
      </trkpt>
      <trkpt lat="47.23112" lon="-1.09584">
        <ele>108</ele>
        <time>2023-11-04T19:54:46Z</time>
      </trkpt>
      <trkpt lat="47.23057" lon="-1.096">
        <ele>106</ele>
        <time>2023-11-04T19:56:00Z</time>
      </trkpt>
      <trkpt lat="47.2302" lon="-1.09608">
        <ele>105</ele>
        <time>2023-11-04T19:56:50Z</time>
      </trkpt>
      <trkpt lat="47.22986" lon="-1.09627">
        <ele>104</ele>
        <time>2023-11-04T19:57:39Z</time>
      </trkpt>
      <trkpt lat="47.22968" lon="-1.09633">
        <ele>104</ele>
        <time>2023-11-04T19:58:04Z</time>
      </trkpt>
      <trkpt lat="47.22935" lon="-1.09658">
        <ele>104</ele>
        <time>2023-11-04T19:58:53Z</time>
      </trkpt>
      <trkpt lat="47.22889" lon="-1.09707">
        <ele>102</ele>
        <time>2023-11-04T20:00:09Z</time>
      </trkpt>
      <trkpt lat="47.22864" lon="-1.09745">
        <ele>102</ele>
        <time>2023-11-04T20:00:57Z</time>
      </trkpt>
      <trkpt lat="47.22823" lon="-1.09798">
        <ele>102</ele>
        <time>2023-11-04T20:02:10Z</time>
      </trkpt>
      <trkpt lat="47.22792" lon="-1.09827">
        <ele>102</ele>
        <time>2023-11-04T20:02:59Z</time>
      </trkpt>
      <trkpt lat="47.22647" lon="-1.09949">
        <ele>101</ele>
        <time>2023-11-04T20:06:41Z</time>
      </trkpt>
      <trkpt lat="47.22586" lon="-1.10014">
        <ele>102</ele>
        <time>2023-11-04T20:08:22Z</time>
      </trkpt>
      <trkpt lat="47.22544" lon="-1.10065">
        <ele>102</ele>
        <time>2023-11-04T20:09:35Z</time>
      </trkpt>
      <trkpt lat="47.22527" lon="-1.10078">
        <ele>101</ele>
        <time>2023-11-04T20:10:00Z</time>
      </trkpt>
      <trkpt lat="47.22509" lon="-1.10077">
        <ele>101</ele>
        <time>2023-11-04T20:10:24Z</time>
      </trkpt>
      <trkpt lat="47.22479" lon="-1.10045">
        <ele>102</ele>
        <time>2023-11-04T20:11:14Z</time>
      </trkpt>
      <trkpt lat="47.22415" lon="-1.09989">
        <ele>102</ele>
        <time>2023-11-04T20:12:53Z</time>
      </trkpt>
      <trkpt lat="47.22348" lon="-1.09939">
        <ele>103</ele>
        <time>2023-11-04T20:14:33Z</time>
      </trkpt>
      <trkpt lat="47.22245" lon="-1.09823">
        <ele>103</ele>
        <time>2023-11-04T20:17:26Z</time>
      </trkpt>
      <trkpt lat="47.22218" lon="-1.09787">
        <ele>102</ele>
        <time>2023-11-04T20:18:15Z</time>
      </trkpt>
      <trkpt lat="47.22202" lon="-1.09772">
        <ele>101</ele>
        <time>2023-11-04T20:18:40Z</time>
      </trkpt>
      <trkpt lat="47.22174" lon="-1.09734">
        <ele>101</ele>
        <time>2023-11-04T20:19:31Z</time>
      </trkpt>
      <trkpt lat="47.22146" lon="-1.09701">
        <ele>101</ele>
        <time>2023-11-04T20:20:19Z</time>
      </trkpt>
      <trkpt lat="47.22129" lon="-1.09687">
        <ele>100</ele>
        <time>2023-11-04T20:20:45Z</time>
      </trkpt>
      <trkpt lat="47.22111" lon="-1.09677">
        <ele>100</ele>
        <time>2023-11-04T20:21:10Z</time>
      </trkpt>
      <trkpt lat="47.21999" lon="-1.09654">
        <ele>98</ele>
        <time>2023-11-04T20:23:41Z</time>
      </trkpt>
      <trkpt lat="47.21961" lon="-1.09654">
        <ele>99</ele>
        <time>2023-11-04T20:24:32Z</time>
      </trkpt>
      <trkpt lat="47.21796" lon="-1.09698">
        <ele>96</ele>
        <time>2023-11-04T20:28:16Z</time>
      </trkpt>
      <trkpt lat="47.21778" lon="-1.09692">
        <ele>96</ele>
        <time>2023-11-04T20:28:40Z</time>
      </trkpt>
      <trkpt lat="47.21743" lon="-1.09672">
        <ele>96</ele>
        <time>2023-11-04T20:29:31Z</time>
      </trkpt>
      <trkpt lat="47.21712" lon="-1.09643">
        <ele>95</ele>
        <time>2023-11-04T20:30:20Z</time>
      </trkpt>
      <trkpt lat="47.21662" lon="-1.09606">
        <ele>95</ele>
        <time>2023-11-04T20:31:34Z</time>
      </trkpt>
      <trkpt lat="47.21647" lon="-1.09592">
        <ele>94</ele>
        <time>2023-11-04T20:31:58Z</time>
      </trkpt>
      <trkpt lat="47.21611" lon="-1.09577">
        <ele>94</ele>
        <time>2023-11-04T20:32:48Z</time>
      </trkpt>
      <trkpt lat="47.21537" lon="-1.09564">
        <ele>91</ele>
        <time>2023-11-04T20:34:27Z</time>
      </trkpt>
      <trkpt lat="47.215" lon="-1.0956">
        <ele>90</ele>
        <time>2023-11-04T20:35:17Z</time>
      </trkpt>
      <trkpt lat="47.21482" lon="-1.0956">
        <ele>91</ele>
        <time>2023-11-04T20:35:41Z</time>
      </trkpt>
      <trkpt lat="47.21463" lon="-1.09564">
        <ele>91</ele>
        <time>2023-11-04T20:36:06Z</time>
      </trkpt>
      <trkpt lat="47.21426" lon="-1.09563">
        <ele>93</ele>
        <time>2023-11-04T20:36:56Z</time>
      </trkpt>
      <trkpt lat="47.21315" lon="-1.09584">
        <ele>95</ele>
        <time>2023-11-04T20:39:25Z</time>
      </trkpt>
      <trkpt lat="47.21278" lon="-1.09598">
        <ele>96</ele>
        <time>2023-11-04T20:40:16Z</time>
      </trkpt>
      <trkpt lat="47.21259" lon="-1.09601">
        <ele>96</ele>
        <time>2023-11-04T20:40:42Z</time>
      </trkpt>
      <trkpt lat="47.21241" lon="-1.09607">
        <ele>96</ele>
        <time>2023-11-04T20:41:06Z</time>
      </trkpt>
      <trkpt lat="47.2119" lon="-1.09639">
        <ele>96</ele>
        <time>2023-11-04T20:42:20Z</time>
      </trkpt>
      <trkpt lat="47.21176" lon="-1.09656">
        <ele>96</ele>
        <time>2023-11-04T20:42:45Z</time>
      </trkpt>
      <trkpt lat="47.21157" lon="-1.0966">
        <ele>96</ele>
        <time>2023-11-04T20:43:10Z</time>
      </trkpt>
      <trkpt lat="47.21094" lon="-1.09604">
        <ele>97</ele>
        <time>2023-11-04T20:44:48Z</time>
      </trkpt>
      <trkpt lat="47.20989" lon="-1.09549">
        <ele>99</ele>
        <time>2023-11-04T20:47:17Z</time>
      </trkpt>
      <trkpt lat="47.20957" lon="-1.09523">
        <ele>100</ele>
        <time>2023-11-04T20:48:06Z</time>
      </trkpt>
      <trkpt lat="47.20939" lon="-1.09513">
        <ele>101</ele>
        <time>2023-11-04T20:48:32Z</time>
      </trkpt>
      <trkpt lat="47.20927" lon="-1.09532">
        <ele>100</ele>
        <time>2023-11-04T20:48:55Z</time>
      </trkpt>
      <trkpt lat="47.20907" lon="-1.0958">
        <ele>100</ele>
        <time>2023-11-04T20:49:46Z</time>
      </trkpt>
      <trkpt lat="47.20893" lon="-1.09599">
        <ele>100</ele>
        <time>2023-11-04T20:50:11Z</time>
      </trkpt>
      <trkpt lat="47.20846" lon="-1.09641">
        <ele>100</ele>
        <time>2023-11-04T20:51:25Z</time>
      </trkpt>
      <trkpt lat="47.20816" lon="-1.09674">
        <ele>99</ele>
        <time>2023-11-04T20:52:15Z</time>
      </trkpt>
      <trkpt lat="47.20769" lon="-1.09718">
        <ele>97</ele>
        <time>2023-11-04T20:53:29Z</time>
      </trkpt>
      <trkpt lat="47.20727" lon="-1.09774">
        <ele>96</ele>
        <time>2023-11-04T20:54:45Z</time>
      </trkpt>
      <trkpt lat="47.2071" lon="-1.09784">
        <ele>96</ele>
        <time>2023-11-04T20:55:09Z</time>
      </trkpt>
      <trkpt lat="47.20694" lon="-1.09798">
        <ele>96</ele>
        <time>2023-11-04T20:55:34Z</time>
      </trkpt>
      <trkpt lat="47.20652" lon="-1.0985">
        <ele>94</ele>
        <time>2023-11-04T20:56:47Z</time>
      </trkpt>
      <trkpt lat="47.20634" lon="-1.0985">
        <ele>94</ele>
        <time>2023-11-04T20:57:11Z</time>
      </trkpt>
      <trkpt lat="47.20602" lon="-1.0982">
        <ele>94</ele>
        <time>2023-11-04T20:58:02Z</time>
      </trkpt>
      <trkpt lat="47.20588" lon="-1.09801">
        <ele>94</ele>
        <time>2023-11-04T20:58:27Z</time>
      </trkpt>
      <trkpt lat="47.20526" lon="-1.09738">
        <ele>92</ele>
        <time>2023-11-04T21:00:08Z</time>
      </trkpt>
      <trkpt lat="47.2052" lon="-1.09713">
        <ele>92</ele>
        <time>2023-11-04T21:00:32Z</time>
      </trkpt>
      <trkpt lat="47.20535" lon="-1.09635">
        <ele>92</ele>
        <time>2023-11-04T21:01:45Z</time>
      </trkpt>
      <trkpt lat="47.20552" lon="-1.09474">
        <ele>94</ele>
        <time>2023-11-04T21:04:13Z</time>
      </trkpt>
      <trkpt lat="47.20568" lon="-1.09369">
        <ele>96</ele>
        <time>2023-11-04T21:05:51Z</time>
      </trkpt>
      <trkpt lat="47.20576" lon="-1.0926">
        <ele>99</ele>
        <time>2023-11-04T21:07:30Z</time>
      </trkpt>
      <trkpt lat="47.20587" lon="-1.0918">
        <ele>100</ele>
        <time>2023-11-04T21:08:44Z</time>
      </trkpt>
      <trkpt lat="47.20605" lon="-1.0885">
        <ele>96</ele>
        <time>2023-11-04T21:13:44Z</time>
      </trkpt>
      <trkpt lat="47.20587" lon="-1.08839">
        <ele>95</ele>
        <time>2023-11-04T21:14:10Z</time>
      </trkpt>
      <trkpt lat="47.2057" lon="-1.08849">
        <ele>95</ele>
        <time>2023-11-04T21:14:35Z</time>
      </trkpt>
      <trkpt lat="47.20537" lon="-1.08875">
        <ele>96</ele>
        <time>2023-11-04T21:15:25Z</time>
      </trkpt>
      <trkpt lat="47.20503" lon="-1.08898">
        <ele>96</ele>
        <time>2023-11-04T21:16:15Z</time>
      </trkpt>
      <trkpt lat="47.20492" lon="-1.08877">
        <ele>96</ele>
        <time>2023-11-04T21:16:39Z</time>
      </trkpt>
      <trkpt lat="47.20457" lon="-1.0878">
        <ele>96</ele>
        <time>2023-11-04T21:18:18Z</time>
      </trkpt>
      <trkpt lat="47.204" lon="-1.08609">
        <ele>99</ele>
        <time>2023-11-04T21:21:11Z</time>
      </trkpt>
      <trkpt lat="47.20389" lon="-1.08558">
        <ele>98</ele>
        <time>2023-11-04T21:21:59Z</time>
      </trkpt>
      <trkpt lat="47.20362" lon="-1.08457">
        <ele>99</ele>
        <time>2023-11-04T21:23:38Z</time>
      </trkpt>
      <trkpt lat="47.20329" lon="-1.0836">
        <ele>100</ele>
        <time>2023-11-04T21:25:16Z</time>
      </trkpt>
      <trkpt lat="47.20317" lon="-1.08307">
        <ele>100</ele>
        <time>2023-11-04T21:26:07Z</time>
      </trkpt>
      <trkpt lat="47.20302" lon="-1.08257">
        <ele>99</ele>
        <time>2023-11-04T21:26:56Z</time>
      </trkpt>
      <trkpt lat="47.20293" lon="-1.08232">
        <ele>99</ele>
        <time>2023-11-04T21:27:22Z</time>
      </trkpt>
      <trkpt lat="47.2027" lon="-1.0819">
        <ele>98</ele>
        <time>2023-11-04T21:28:11Z</time>
      </trkpt>
      <trkpt lat="47.20245" lon="-1.08117">
        <ele>97</ele>
        <time>2023-11-04T21:29:25Z</time>
      </trkpt>
      <trkpt lat="47.2023" lon="-1.08098">
        <ele>96</ele>
        <time>2023-11-04T21:29:51Z</time>
      </trkpt>
      <trkpt lat="47.20216" lon="-1.08047">
        <ele>96</ele>
        <time>2023-11-04T21:30:41Z</time>
      </trkpt>
      <trkpt lat="47.20208" lon="-1.07965">
        <ele>96</ele>
        <time>2023-11-04T21:31:56Z</time>
      </trkpt>
      <trkpt lat="47.20217" lon="-1.07942">
        <ele>96</ele>
        <time>2023-11-04T21:32:20Z</time>
      </trkpt>
      <trkpt lat="47.20231" lon="-1.07925">
        <ele>96</ele>
        <time>2023-11-04T21:32:45Z</time>
      </trkpt>
      <trkpt lat="47.20354" lon="-1.07804">
        <ele>98</ele>
        <time>2023-11-04T21:36:02Z</time>
      </trkpt>
      <trkpt lat="47.20399" lon="-1.07755">
        <ele>98</ele>
        <time>2023-11-04T21:37:17Z</time>
      </trkpt>
      <trkpt lat="47.20446" lon="-1.07713">
        <ele>97</ele>
        <time>2023-11-04T21:38:30Z</time>
      </trkpt>
      <trkpt lat="47.20484" lon="-1.07773">
        <ele>98</ele>
        <time>2023-11-04T21:39:45Z</time>
      </trkpt>
      <trkpt lat="47.20499" lon="-1.07756">
        <ele>98</ele>
        <time>2023-11-04T21:40:10Z</time>
      </trkpt>
      <trkpt lat="47.20499" lon="-1.07729">
        <ele>98</ele>
        <time>2023-11-04T21:40:34Z</time>
      </trkpt>
      <trkpt lat="47.20506" lon="-1.07703">
        <ele>97</ele>
        <time>2023-11-04T21:41:00Z</time>
      </trkpt>
      <trkpt lat="47.2051" lon="-1.07676">
        <ele>97</ele>
        <time>2023-11-04T21:41:25Z</time>
      </trkpt>
      <trkpt lat="47.20548" lon="-1.07584">
        <ele>97</ele>
        <time>2023-11-04T21:43:02Z</time>
      </trkpt>
      <trkpt lat="47.20603" lon="-1.07509">
        <ele>97</ele>
        <time>2023-11-04T21:44:42Z</time>
      </trkpt>
      <trkpt lat="47.20609" lon="-1.07483">
        <ele>96</ele>
        <time>2023-11-04T21:45:07Z</time>
      </trkpt>
      <trkpt lat="47.20622" lon="-1.07374">
        <ele>93</ele>
        <time>2023-11-04T21:46:48Z</time>
      </trkpt>
      <trkpt lat="47.20634" lon="-1.07322">
        <ele>92</ele>
        <time>2023-11-04T21:47:37Z</time>
      </trkpt>
      <trkpt lat="47.20642" lon="-1.07298">
        <ele>91</ele>
        <time>2023-11-04T21:48:02Z</time>
      </trkpt>
      <trkpt lat="47.20654" lon="-1.07217">
        <ele>90</ele>
        <time>2023-11-04T21:49:17Z</time>
      </trkpt>
      <trkpt lat="47.20654" lon="-1.07135">
        <ele>92</ele>
        <time>2023-11-04T21:50:31Z</time>
      </trkpt>
      <trkpt lat="47.2066" lon="-1.07053">
        <ele>94</ele>
        <time>2023-11-04T21:51:46Z</time>
      </trkpt>
      <trkpt lat="47.20658" lon="-1.07025">
        <ele>95</ele>
        <time>2023-11-04T21:52:11Z</time>
      </trkpt>
      <trkpt lat="47.20666" lon="-1.06943">
        <ele>96</ele>
        <time>2023-11-04T21:53:26Z</time>
      </trkpt>
      <trkpt lat="47.20668" lon="-1.06862">
        <ele>98</ele>
        <time>2023-11-04T21:54:40Z</time>
      </trkpt>
      <trkpt lat="47.20671" lon="-1.06834">
        <ele>98</ele>
        <time>2023-11-04T21:55:06Z</time>
      </trkpt>
      <trkpt lat="47.2067" lon="-1.06806">
        <ele>98</ele>
        <time>2023-11-04T21:55:31Z</time>
      </trkpt>
      <trkpt lat="47.20678" lon="-1.06726">
        <ele>98</ele>
        <time>2023-11-04T21:56:44Z</time>
      </trkpt>
      <trkpt lat="47.20688" lon="-1.06563">
        <ele>100</ele>
        <time>2023-11-04T21:59:13Z</time>
      </trkpt>
      <trkpt lat="47.20695" lon="-1.0651">
        <ele>101</ele>
        <time>2023-11-04T22:00:02Z</time>
      </trkpt>
      <trkpt lat="47.20694" lon="-1.06455">
        <ele>101</ele>
        <time>2023-11-04T22:00:52Z</time>
      </trkpt>
      <trkpt lat="47.20699" lon="-1.06428">
        <ele>100</ele>
        <time>2023-11-04T22:01:17Z</time>
      </trkpt>
      <trkpt lat="47.20701" lon="-1.064">
        <ele>100</ele>
        <time>2023-11-04T22:01:42Z</time>
      </trkpt>
      <trkpt lat="47.20697" lon="-1.06292">
        <ele>98</ele>
        <time>2023-11-04T22:03:21Z</time>
      </trkpt>
      <trkpt lat="47.20701" lon="-1.06185">
        <ele>94</ele>
        <time>2023-11-04T22:04:58Z</time>
      </trkpt>
      <trkpt lat="47.20706" lon="-1.06131">
        <ele>93</ele>
        <time>2023-11-04T22:05:47Z</time>
      </trkpt>
      <trkpt lat="47.20707" lon="-1.06077">
        <ele>92</ele>
        <time>2023-11-04T22:06:36Z</time>
      </trkpt>
      <trkpt lat="47.20711" lon="-1.0605">
        <ele>91</ele>
        <time>2023-11-04T22:07:01Z</time>
      </trkpt>
      <trkpt lat="47.20723" lon="-1.05886">
        <ele>88</ele>
        <time>2023-11-04T22:09:31Z</time>
      </trkpt>
      <trkpt lat="47.20735" lon="-1.05777">
        <ele>86</ele>
        <time>2023-11-04T22:11:11Z</time>
      </trkpt>
      <trkpt lat="47.20759" lon="-1.05703">
        <ele>85</ele>
        <time>2023-11-04T22:12:25Z</time>
      </trkpt>
      <trkpt lat="47.20772" lon="-1.05624">
        <ele>85</ele>
        <time>2023-11-04T22:13:39Z</time>
      </trkpt>
      <trkpt lat="47.20791" lon="-1.05461">
        <ele>86</ele>
        <time>2023-11-04T22:16:09Z</time>
      </trkpt>
      <trkpt lat="47.20792" lon="-1.05404">
        <ele>86</ele>
        <time>2023-11-04T22:17:00Z</time>
      </trkpt>
      <trkpt lat="47.20796" lon="-1.05378">
        <ele>86</ele>
        <time>2023-11-04T22:17:25Z</time>
      </trkpt>
      <trkpt lat="47.20809" lon="-1.05326">
        <ele>87</ele>
        <time>2023-11-04T22:18:15Z</time>
      </trkpt>
      <trkpt lat="47.20818" lon="-1.05302">
        <ele>87</ele>
        <time>2023-11-04T22:18:40Z</time>
      </trkpt>
      <trkpt lat="47.20841" lon="-1.0526">
        <ele>88</ele>
        <time>2023-11-04T22:19:29Z</time>
      </trkpt>
      <trkpt lat="47.2091" lon="-1.05167">
        <ele>90</ele>
        <time>2023-11-04T22:21:33Z</time>
      </trkpt>
      <trkpt lat="47.20919" lon="-1.05142">
        <ele>90</ele>
        <time>2023-11-04T22:21:59Z</time>
      </trkpt>
      <trkpt lat="47.20925" lon="-1.05116">
        <ele>90</ele>
        <time>2023-11-04T22:22:24Z</time>
      </trkpt>
      <trkpt lat="47.20944" lon="-1.05119">
        <ele>90</ele>
        <time>2023-11-04T22:22:49Z</time>
      </trkpt>
      <trkpt lat="47.21008" lon="-1.05217">
        <ele>90</ele>
        <time>2023-11-04T22:24:53Z</time>
      </trkpt>
      <trkpt lat="47.21022" lon="-1.05234">
        <ele>90</ele>
        <time>2023-11-04T22:25:17Z</time>
      </trkpt>
      <trkpt lat="47.2104" lon="-1.05243">
        <ele>91</ele>
        <time>2023-11-04T22:25:42Z</time>
      </trkpt>
      <trkpt lat="47.21094" lon="-1.05224">
        <ele>91</ele>
        <time>2023-11-04T22:26:56Z</time>
      </trkpt>
      <trkpt lat="47.21113" lon="-1.05223">
        <ele>91</ele>
        <time>2023-11-04T22:27:22Z</time>
      </trkpt>
      <trkpt lat="47.21127" lon="-1.05206">
        <ele>90</ele>
        <time>2023-11-04T22:27:46Z</time>
      </trkpt>
      <trkpt lat="47.21138" lon="-1.05185">
        <ele>90</ele>
        <time>2023-11-04T22:28:10Z</time>
      </trkpt>
      <trkpt lat="47.21171" lon="-1.05159">
        <ele>90</ele>
        <time>2023-11-04T22:29:00Z</time>
      </trkpt>
      <trkpt lat="47.21201" lon="-1.05128">
        <ele>88</ele>
        <time>2023-11-04T22:29:49Z</time>
      </trkpt>
      <trkpt lat="47.21218" lon="-1.05115">
        <ele>88</ele>
        <time>2023-11-04T22:30:14Z</time>
      </trkpt>
      <trkpt lat="47.21249" lon="-1.05082">
        <ele>86</ele>
        <time>2023-11-04T22:31:05Z</time>
      </trkpt>
      <trkpt lat="47.21275" lon="-1.05043">
        <ele>85</ele>
        <time>2023-11-04T22:31:55Z</time>
      </trkpt>
      <trkpt lat="47.21296" lon="-1.04999">
        <ele>84</ele>
        <time>2023-11-04T22:32:44Z</time>
      </trkpt>
      <trkpt lat="47.21336" lon="-1.04943">
        <ele>82</ele>
        <time>2023-11-04T22:33:57Z</time>
      </trkpt>
      <trkpt lat="47.21366" lon="-1.04912">
        <ele>80</ele>
        <time>2023-11-04T22:34:46Z</time>
      </trkpt>
      <trkpt lat="47.21398" lon="-1.04884">
        <ele>79</ele>
        <time>2023-11-04T22:35:36Z</time>
      </trkpt>
      <trkpt lat="47.21415" lon="-1.04874">
        <ele>77</ele>
        <time>2023-11-04T22:36:00Z</time>
      </trkpt>
      <trkpt lat="47.21452" lon="-1.04861">
        <ele>78</ele>
        <time>2023-11-04T22:36:51Z</time>
      </trkpt>
      <trkpt lat="47.21474" lon="-1.04786">
        <ele>77</ele>
        <time>2023-11-04T22:38:05Z</time>
      </trkpt>
      <trkpt lat="47.21485" lon="-1.04764">
        <ele>77</ele>
        <time>2023-11-04T22:38:30Z</time>
      </trkpt>
      <trkpt lat="47.215" lon="-1.04746">
        <ele>78</ele>
        <time>2023-11-04T22:38:56Z</time>
      </trkpt>
      <trkpt lat="47.21543" lon="-1.04655">
        <ele>76</ele>
        <time>2023-11-04T22:40:36Z</time>
      </trkpt>
      <trkpt lat="47.21552" lon="-1.04631">
        <ele>74</ele>
        <time>2023-11-04T22:41:01Z</time>
      </trkpt>
      <trkpt lat="47.21567" lon="-1.04617">
        <ele>74</ele>
        <time>2023-11-04T22:41:25Z</time>
      </trkpt>
      <trkpt lat="47.21691" lon="-1.04554">
        <ele>68</ele>
        <time>2023-11-04T22:44:20Z</time>
      </trkpt>
      <trkpt lat="47.218" lon="-1.0452">
        <ele>70</ele>
        <time>2023-11-04T22:46:49Z</time>
      </trkpt>
      <trkpt lat="47.2179" lon="-1.04496">
        <ele>70</ele>
        <time>2023-11-04T22:47:14Z</time>
      </trkpt>
      <trkpt lat="47.21744" lon="-1.04449">
        <ele>69</ele>
        <time>2023-11-04T22:48:29Z</time>
      </trkpt>
      <trkpt lat="47.21694" lon="-1.04415">
        <ele>68</ele>
        <time>2023-11-04T22:49:42Z</time>
      </trkpt>
      <trkpt lat="47.21664" lon="-1.04381">
        <ele>69</ele>
        <time>2023-11-04T22:50:33Z</time>
      </trkpt>
      <trkpt lat="47.21629" lon="-1.04359">
        <ele>67</ele>
        <time>2023-11-04T22:51:24Z</time>
      </trkpt>
      <trkpt lat="47.21612" lon="-1.04351">
        <ele>66</ele>
        <time>2023-11-04T22:51:47Z</time>
      </trkpt>
      <trkpt lat="47.21606" lon="-1.04325">
        <ele>67</ele>
        <time>2023-11-04T22:52:12Z</time>
      </trkpt>
      <trkpt lat="47.21634" lon="-1.04225">
        <ele>68</ele>
        <time>2023-11-04T22:53:50Z</time>
      </trkpt>
      <trkpt lat="47.21643" lon="-1.04173">
        <ele>68</ele>
        <time>2023-11-04T22:54:39Z</time>
      </trkpt>
      <trkpt lat="47.21649" lon="-1.0412">
        <ele>66</ele>
        <time>2023-11-04T22:55:28Z</time>
      </trkpt>
      <trkpt lat="47.21653" lon="-1.0404">
        <ele>60</ele>
        <time>2023-11-04T22:56:40Z</time>
      </trkpt>
      <trkpt lat="47.21652" lon="-1.04012">
        <ele>58</ele>
        <time>2023-11-04T22:57:06Z</time>
      </trkpt>
      <trkpt lat="47.21673" lon="-1.03966">
        <ele>53</ele>
        <time>2023-11-04T22:57:56Z</time>
      </trkpt>
      <trkpt lat="47.21746" lon="-1.03941">
        <ele>51</ele>
        <time>2023-11-04T22:59:36Z</time>
      </trkpt>
      <trkpt lat="47.21762" lon="-1.03926">
        <ele>50</ele>
        <time>2023-11-04T23:00:01Z</time>
      </trkpt>
      <trkpt lat="47.2178" lon="-1.03916">
        <ele>49</ele>
        <time>2023-11-04T23:00:27Z</time>
      </trkpt>
      <trkpt lat="47.21783" lon="-1.03889">
        <ele>47</ele>
        <time>2023-11-04T23:00:52Z</time>
      </trkpt>
      <trkpt lat="47.21775" lon="-1.03834">
        <ele>43</ele>
        <time>2023-11-04T23:01:43Z</time>
      </trkpt>
      <trkpt lat="47.21774" lon="-1.03807">
        <ele>42</ele>
        <time>2023-11-04T23:02:07Z</time>
      </trkpt>
      <trkpt lat="47.21786" lon="-1.03786">
        <ele>43</ele>
        <time>2023-11-04T23:02:32Z</time>
      </trkpt>
      <trkpt lat="47.21852" lon="-1.03737">
        <ele>44</ele>
        <time>2023-11-04T23:04:11Z</time>
      </trkpt>
      <trkpt lat="47.21889" lon="-1.03723">
        <ele>43</ele>
        <time>2023-11-04T23:05:02Z</time>
      </trkpt>
      <trkpt lat="47.21906" lon="-1.03709">
        <ele>42</ele>
        <time>2023-11-04T23:05:28Z</time>
      </trkpt>
      <trkpt lat="47.21926" lon="-1.03706">
        <ele>44</ele>
        <time>2023-11-04T23:05:55Z</time>
      </trkpt>
      <trkpt lat="47.21932" lon="-1.03732">
        <ele>46</ele>
        <time>2023-11-04T23:06:20Z</time>
      </trkpt>
      <trkpt lat="47.2193" lon="-1.03759">
        <ele>48</ele>
        <time>2023-11-04T23:06:44Z</time>
      </trkpt>
      <trkpt lat="47.21914" lon="-1.03809">
        <ele>50</ele>
        <time>2023-11-04T23:07:34Z</time>
      </trkpt>
      <trkpt lat="47.21905" lon="-1.03863">
        <ele>54</ele>
        <time>2023-11-04T23:08:25Z</time>
      </trkpt>
      <trkpt lat="47.21909" lon="-1.03889">
        <ele>56</ele>
        <time>2023-11-04T23:08:49Z</time>
      </trkpt>
      <trkpt lat="47.21916" lon="-1.03914">
        <ele>59</ele>
        <time>2023-11-04T23:09:13Z</time>
      </trkpt>
      <trkpt lat="47.21928" lon="-1.03934">
        <ele>62</ele>
        <time>2023-11-04T23:09:38Z</time>
      </trkpt>
      <trkpt lat="47.21992" lon="-1.03991">
        <ele>75</ele>
        <time>2023-11-04T23:11:17Z</time>
      </trkpt>
      <trkpt lat="47.22027" lon="-1.04011">
        <ele>79</ele>
        <time>2023-11-04T23:12:07Z</time>
      </trkpt>
      <trkpt lat="47.22043" lon="-1.04028">
        <ele>81</ele>
        <time>2023-11-04T23:12:34Z</time>
      </trkpt>
      <trkpt lat="47.22076" lon="-1.04053">
        <ele>84</ele>
        <time>2023-11-04T23:13:23Z</time>
      </trkpt>
      <trkpt lat="47.22095" lon="-1.04043">
        <ele>86</ele>
        <time>2023-11-04T23:13:50Z</time>
      </trkpt>
      <trkpt lat="47.22113" lon="-1.04049">
        <ele>87</ele>
        <time>2023-11-04T23:14:15Z</time>
      </trkpt>
      <trkpt lat="47.22137" lon="-1.04007">
        <ele>90</ele>
        <time>2023-11-04T23:15:05Z</time>
      </trkpt>
      <trkpt lat="47.22152" lon="-1.03991">
        <ele>90</ele>
        <time>2023-11-04T23:15:29Z</time>
      </trkpt>
      <trkpt lat="47.2217" lon="-1.03987">
        <ele>91</ele>
        <time>2023-11-04T23:15:54Z</time>
      </trkpt>
      <trkpt lat="47.22185" lon="-1.04001">
        <ele>91</ele>
        <time>2023-11-04T23:16:17Z</time>
      </trkpt>
    </trkseg>
  </trk>
</gpx>